ロンドン/ヒースロー の空港の天気 - METARとTAF

ロンドン・ヒースロー空港 ( EGLL / LHR ) - イギリス ロンドン
飛行場実況気象(Metar)
観測時間09/26 13:20 BST (09/26 12:20 UTC)
風向・風速北東 2m/s
視程8000m
天気現象
全天の4割程度の雲 雲底高度 760m
全天の8割程度の雲 雲底高度 1100m
気温19℃
湿度68%
気圧1022hPa
METAREGLL 261220Z AUTO 05004KT 350V090 8000 SCT025 BKN036 19/13 Q1022
過去の天気等 Google飛行場航空写真 Wunderground天気予報

過去48時間のMETAR

飛行場予報(TAF)
発表時間: 9/26 11:51 BST (9/26 10:51 UTC)
予報対象時間: 26日13時 BST ~ 27日19時 BST
風向・風速東 2m/s
視程10km以上
全天の4割程度の雲 雲底高度 760m
26日13時 BST ~ 26日19時 BST に 確率 30% で一時的に
視程8,000m
26日19時 BST ~ 26日22時 BST に徐々に
視程7,000m
26日23時 BST ~ 27日2時 BST に徐々に
視程3,000m
天気現象もや
27日5時 BST ~ 27日9時 BST に 確率 30% で一時的に
視程500m
天気現象
全天の8割程度の雲 雲底高度 30m
27日10時 BST ~ 27日13時 BST に徐々に
風向・風速南南東 5m/s
視程10km以上
天気現象運行に影響にある天気現象が終了
TAF EGLL 261051Z 2612/2718 09003KT 9999 SCT025
PROB30 TEMPO 2612/2618 8000
BECMG 2618/2621 7000
BECMG 2622/2701 3000 BR
PROB30 TEMPO 2704/2708 0500 FG BKN001
BECMG 2709/2712 15010KT 9999 NSW